createdAt,value
2023-08-11T00:02:09.036Z,4.67
2023-08-11T00:04:36.687Z,5.23
2023-08-11T00:07:05.323Z,5.70
2023-08-11T00:09:33.412Z,5.27
2023-08-11T00:12:01.019Z,5.63
2023-08-11T00:14:28.734Z,5.00
2023-08-11T00:16:57.312Z,5.13
2023-08-11T00:19:27.231Z,5.00
2023-08-11T00:21:54.851Z,5.13
2023-08-11T00:24:22.542Z,5.33
2023-08-11T00:26:50.138Z,5.40
2023-08-11T00:29:18.614Z,5.53
2023-08-11T00:31:46.819Z,4.70
2023-08-11T00:34:14.527Z,5.40
2023-08-11T00:36:43.658Z,4.87
2023-08-11T00:39:11.263Z,4.27
2023-08-11T00:41:38.898Z,4.43
2023-08-11T00:44:06.987Z,5.07
2023-08-11T00:46:34.793Z,4.57
2023-08-11T00:49:02.504Z,4.50
2023-08-11T00:51:30.358Z,4.40
2023-08-11T00:54:00.530Z,4.83
2023-08-11T00:56:28.606Z,5.70
2023-08-11T00:58:56.842Z,5.17
2023-08-11T01:01:25.647Z,4.57
2023-08-11T01:03:53.318Z,5.60
2023-08-11T01:06:27.141Z,4.80
2023-08-11T01:09:01.550Z,5.30
2023-08-11T01:11:35.632Z,4.70
2023-08-11T01:14:06.049Z,5.10
2023-08-11T01:16:35.068Z,4.70
2023-08-11T01:19:05.443Z,4.73
2023-08-11T01:21:35.652Z,5.10
2023-08-11T01:24:06.032Z,4.80
2023-08-11T01:26:35.104Z,4.40
2023-08-11T01:29:02.841Z,5.37
2023-08-11T01:31:30.432Z,5.20
2023-08-11T01:33:58.145Z,5.00
2023-08-11T01:36:26.337Z,5.70
2023-08-11T01:38:54.137Z,5.60
2023-08-11T01:41:23.145Z,5.03
2023-08-11T01:43:52.266Z,5.13
2023-08-11T01:46:20.265Z,5.50
2023-08-11T01:48:48.138Z,5.20
2023-08-11T01:51:15.791Z,5.03
2023-08-11T01:53:43.684Z,5.80
2023-08-11T01:56:11.336Z,5.30
2023-08-11T01:58:40.488Z,5.03
2023-08-11T02:01:08.793Z,5.30
2023-08-11T02:03:36.449Z,5.23
2023-08-11T02:06:04.064Z,5.77
2023-08-11T02:08:33.031Z,5.30
2023-08-11T02:11:00.912Z,5.07
2023-08-11T02:13:30.001Z,5.00
2023-08-11T02:15:58.974Z,5.63
2023-08-11T02:18:29.832Z,5.67
2023-08-11T02:20:57.503Z,5.53
2023-08-11T02:23:25.193Z,5.00
2023-08-11T02:25:52.843Z,4.90
2023-08-11T02:28:20.441Z,5.30
2023-08-11T02:30:48.386Z,5.27
2023-08-11T02:33:19.471Z,5.83
2023-08-11T02:35:47.277Z,5.10
2023-08-11T02:38:15.770Z,5.27
2023-08-11T02:40:43.814Z,4.90
2023-08-11T02:43:11.453Z,5.17
2023-08-11T02:45:39.218Z,4.77
2023-08-11T02:48:07.529Z,4.77
2023-08-11T02:50:36.635Z,5.10
2023-08-11T02:53:05.690Z,4.97
2023-08-11T02:55:33.341Z,5.90
2023-08-11T02:58:00.970Z,5.33
2023-08-11T03:00:29.920Z,4.90
2023-08-11T03:02:58.009Z,5.30
2023-08-11T03:05:25.994Z,5.13
2023-08-11T03:07:54.953Z,5.03
2023-08-11T03:10:22.556Z,5.33
2023-08-11T03:12:50.179Z,5.00
2023-08-11T03:15:18.249Z,4.93
2023-08-11T03:17:45.893Z,4.93
2023-08-11T03:20:14.742Z,5.43
2023-08-11T03:22:43.178Z,5.80
2023-08-11T03:25:13.100Z,5.23
2023-08-11T03:27:43.362Z,5.83
2023-08-11T03:30:12.867Z,5.37
2023-08-11T03:32:41.525Z,5.73
2023-08-11T03:35:09.918Z,5.97
2023-08-11T03:37:37.611Z,5.43
2023-08-11T03:40:07.134Z,4.90
2023-08-11T03:42:36.134Z,5.57
2023-08-11T03:45:03.981Z,5.30
2023-08-11T03:47:31.642Z,5.60
2023-08-11T03:49:59.479Z,6.20
2023-08-11T03:52:27.084Z,5.43
2023-08-11T03:54:54.708Z,5.60
2023-08-11T03:57:22.495Z,5.30
2023-08-11T03:59:51.497Z,4.67
2023-08-11T04:02:19.113Z,4.80
2023-08-11T04:04:47.015Z,5.10
2023-08-11T04:07:14.652Z,5.90
2023-08-11T04:09:45.182Z,5.57
2023-08-11T04:12:12.950Z,5.93
2023-08-11T04:14:40.633Z,5.27
2023-08-11T04:17:09.634Z,5.60
2023-08-11T04:19:37.222Z,5.40
2023-08-11T04:22:06.465Z,5.77
2023-08-11T04:24:34.559Z,6.07
2023-08-11T04:27:02.154Z,5.70
2023-08-11T04:29:29.839Z,6.00
2023-08-11T04:31:57.475Z,5.50
2023-08-11T04:34:26.475Z,5.80
2023-08-11T04:36:54.768Z,5.50
2023-08-11T04:39:22.737Z,5.53
2023-08-11T04:41:51.029Z,5.83
2023-08-11T04:44:18.691Z,5.20
2023-08-11T04:46:46.304Z,5.10
2023-08-11T04:49:13.923Z,5.47
2023-08-11T04:51:43.850Z,5.67
2023-08-11T04:54:12.883Z,5.70
2023-08-11T04:56:40.482Z,5.43
2023-08-11T04:59:08.441Z,5.70
2023-08-11T05:01:36.123Z,6.00
2023-08-11T05:04:05.710Z,6.23
2023-08-11T05:06:33.684Z,6.43
2023-08-11T05:09:03.926Z,6.03
2023-08-11T05:11:32.020Z,6.60
2023-08-11T05:13:59.642Z,6.00
2023-08-11T05:16:27.534Z,5.63
2023-08-11T05:18:55.284Z,5.80
2023-08-11T05:21:24.122Z,5.20
2023-08-11T05:23:52.203Z,5.50
2023-08-11T05:26:21.163Z,5.40
2023-08-11T05:28:48.742Z,5.67
2023-08-11T05:31:16.378Z,4.80
2023-08-11T05:33:44.003Z,6.13
2023-08-11T05:36:11.675Z,5.70
2023-08-11T05:38:39.835Z,5.73
2023-08-11T05:41:07.451Z,5.83
2023-08-11T05:43:37.480Z,5.77
2023-08-11T05:46:07.957Z,5.70
2023-08-11T05:48:37.086Z,5.33
2023-08-11T05:51:05.379Z,6.00
2023-08-11T05:53:36.002Z,6.07
2023-08-11T05:56:03.646Z,6.20
2023-08-11T05:58:31.744Z,7.00
2023-08-11T06:01:02.229Z,6.30
2023-08-11T06:03:32.066Z,6.63
2023-08-11T06:06:05.358Z,6.37
2023-08-11T06:08:33.172Z,5.40
2023-08-11T06:11:00.751Z,5.73
2023-08-11T06:13:29.382Z,5.30
2023-08-11T06:15:57.220Z,5.73
2023-08-11T06:18:26.254Z,5.83
2023-08-11T06:20:54.398Z,5.70
2023-08-11T06:23:22.178Z,5.70
2023-08-11T06:25:50.125Z,5.60
2023-08-11T06:28:18.665Z,5.97
2023-08-11T06:30:46.394Z,5.33
2023-08-11T06:33:14.007Z,5.23
2023-08-11T06:35:43.479Z,5.17
2023-08-11T06:38:11.342Z,4.90
2023-08-11T06:40:39.904Z,5.57
2023-08-11T06:43:08.159Z,5.03
2023-08-11T06:45:35.859Z,5.10
2023-08-11T06:48:03.678Z,5.03
2023-08-11T06:50:31.428Z,4.97
2023-08-11T06:53:00.753Z,5.20
2023-08-11T06:55:28.477Z,5.00
2023-08-11T06:57:56.146Z,4.77
2023-08-11T07:00:24.740Z,4.77
2023-08-11T07:02:52.617Z,5.00
2023-08-11T07:05:20.575Z,4.57
2023-08-11T07:07:48.260Z,4.60
2023-08-11T07:10:17.424Z,4.57
2023-08-11T07:12:45.092Z,4.37
2023-08-11T07:15:12.787Z,4.87
2023-08-11T07:17:40.608Z,4.60
2023-08-11T07:20:09.325Z,4.47
2023-08-11T07:22:36.954Z,4.70
2023-08-11T07:25:05.255Z,4.60
2023-08-11T07:27:34.216Z,4.53
2023-08-11T07:30:01.934Z,6.23
2023-08-11T07:32:29.653Z,5.07
2023-08-11T07:34:57.330Z,4.37
2023-08-11T07:37:24.998Z,4.37
2023-08-11T07:39:52.629Z,4.23
2023-08-11T07:42:20.270Z,4.83
2023-08-11T07:44:49.225Z,4.33
2023-08-11T07:47:16.794Z,4.07
2023-08-11T07:49:44.395Z,4.30
2023-08-11T07:52:12.022Z,4.03
2023-08-11T07:54:39.917Z,11.17
2023-08-11T07:57:07.882Z,5.40
2023-08-11T07:59:36.043Z,3.87
2023-08-11T08:02:06.543Z,3.60
2023-08-11T08:04:34.212Z,4.20
2023-08-11T08:07:01.924Z,3.70
2023-08-11T08:09:30.173Z,4.10
2023-08-11T08:11:57.906Z,3.67
2023-08-11T08:14:25.586Z,3.50
2023-08-11T08:16:53.383Z,3.53
2023-08-11T08:19:23.063Z,3.40
2023-08-11T08:21:50.706Z,3.37
2023-08-11T08:24:18.439Z,5.83
2023-08-11T08:26:48.998Z,5.07
2023-08-11T08:29:16.640Z,3.80
2023-08-11T08:31:44.416Z,2.93
2023-08-11T08:34:12.225Z,2.80
2023-08-11T08:36:41.323Z,3.33
2023-08-11T08:39:09.776Z,3.40
2023-08-11T08:41:40.225Z,2.87
2023-08-11T08:44:08.159Z,3.27
2023-08-11T08:46:36.237Z,3.07
2023-08-11T08:49:11.876Z,3.30
2023-08-11T08:51:41.939Z,3.33
2023-08-11T08:54:11.023Z,3.87
2023-08-11T08:56:39.495Z,3.10
2023-08-11T08:59:07.752Z,3.07
2023-08-11T09:01:36.894Z,3.27
2023-08-11T09:04:05.705Z,3.10
2023-08-11T09:06:33.823Z,2.93
2023-08-11T09:09:03.140Z,2.97
2023-08-11T09:11:31.214Z,2.87
2023-08-11T09:14:03.801Z,2.80
2023-08-11T09:16:33.173Z,3.97
2023-08-11T09:19:01.053Z,3.57
2023-08-11T09:21:29.001Z,2.90
2023-08-11T09:23:57.724Z,3.00
2023-08-11T09:26:26.677Z,3.00
2023-08-11T09:28:55.768Z,3.07
2023-08-11T09:31:23.667Z,3.27
2023-08-11T09:33:51.315Z,3.60
